createdAt,value
2022-10-11T00:01:37.699Z,70.60
2022-10-11T00:04:18.594Z,70.60
2022-10-11T00:07:00.022Z,70.60
2022-10-11T00:09:41.477Z,71.40
2022-10-11T00:12:22.926Z,70.50
2022-10-11T00:15:05.502Z,70.50
2022-10-11T00:17:45.919Z,70.60
2022-10-11T00:20:27.460Z,70.80
2022-10-11T00:23:08.397Z,71.00
2022-10-11T00:25:59.019Z,71.30
2022-10-11T00:28:39.784Z,71.60
2022-10-11T00:31:20.586Z,71.50
2022-10-11T00:34:02.310Z,71.50
2022-10-11T00:36:43.578Z,71.60
2022-10-11T00:39:24.759Z,71.70
2022-10-11T00:42:04.903Z,71.70
2022-10-11T00:44:48.034Z,71.60
2022-10-11T00:47:29.114Z,71.70
2022-10-11T00:50:11.836Z,71.70
2022-10-11T00:52:56.837Z,71.80
2022-10-11T00:55:42.764Z,71.80
2022-10-11T00:58:24.966Z,71.90
2022-10-11T01:01:06.454Z,72.00
2022-10-11T01:03:47.906Z,72.10
2022-10-11T01:06:28.678Z,72.30
2022-10-11T01:09:10.702Z,72.30
2022-10-11T01:11:53.190Z,72.40
2022-10-11T01:14:55.294Z,72.60
2022-10-11T01:17:47.091Z,72.80
2022-10-11T01:20:39.109Z,72.70
2022-10-11T01:23:45.855Z,72.80
2022-10-11T01:27:03.266Z,72.80
2022-10-11T01:29:57.255Z,72.90
2022-10-11T01:32:45.448Z,72.90
2022-10-11T01:35:33.399Z,73.00
2022-10-11T01:38:18.865Z,73.00
2022-10-11T01:41:05.118Z,73.10
2022-10-11T01:43:46.545Z,73.10
2022-10-11T01:46:28.817Z,73.10
2022-10-11T01:49:10.208Z,73.20
2022-10-11T01:51:54.355Z,73.30
2022-10-11T01:55:09.126Z,73.30
2022-10-11T01:58:14.447Z,73.40
2022-10-11T02:01:01.246Z,74.20
2022-10-11T02:03:50.002Z,73.30
2022-10-11T02:06:36.327Z,73.30
2022-10-11T02:09:23.205Z,73.30
2022-10-11T02:12:11.457Z,73.40
2022-10-11T02:14:55.601Z,73.40
2022-10-11T02:17:41.493Z,73.30
2022-10-11T02:20:25.823Z,73.30
2022-10-11T02:23:11.676Z,73.40
2022-10-11T02:25:54.960Z,73.40
2022-10-11T02:28:38.781Z,73.30
2022-10-11T02:31:21.636Z,73.40
2022-10-11T02:34:10.228Z,74.30
2022-10-11T02:36:58.944Z,74.00
2022-10-11T02:39:45.042Z,73.80
2022-10-11T02:42:30.851Z,73.70
2022-10-11T02:45:17.096Z,73.60
2022-10-11T02:47:57.685Z,73.90
2022-10-11T02:50:38.652Z,73.80
2022-10-11T02:53:19.991Z,73.90
2022-10-11T02:56:01.913Z,73.90
2022-10-11T02:58:42.673Z,73.90
2022-10-11T03:01:24.471Z,73.90
2022-10-11T03:04:05.776Z,74.00
2022-10-11T03:06:47.032Z,73.90
2022-10-11T03:09:28.727Z,74.10
2022-10-11T03:12:10.047Z,74.10
2022-10-11T03:14:51.209Z,74.00
2022-10-11T03:17:36.645Z,74.00
2022-10-11T03:20:19.584Z,74.00
2022-10-11T03:23:00.261Z,74.00
2022-10-11T03:25:41.740Z,74.00
2022-10-11T03:28:22.929Z,73.90
2022-10-11T03:31:04.473Z,74.00
2022-10-11T03:33:45.757Z,74.00
2022-10-11T03:36:27.450Z,74.10
2022-10-11T03:39:08.835Z,74.10
2022-10-11T03:41:50.220Z,74.30
2022-10-11T03:44:31.448Z,74.30
2022-10-11T03:47:12.873Z,74.30
2022-10-11T03:49:54.082Z,74.30
2022-10-11T03:52:36.132Z,74.30
2022-10-11T03:55:17.155Z,74.40
2022-10-11T03:57:58.746Z,74.40
2022-10-11T04:00:41.079Z,74.40
2022-10-11T04:03:33.479Z,74.40
2022-10-11T04:06:14.399Z,74.60
2022-10-11T04:08:55.827Z,74.50
2022-10-11T04:11:37.251Z,74.30
2022-10-11T04:14:18.599Z,74.30
2022-10-11T04:17:00.580Z,74.30
2022-10-11T04:19:41.520Z,74.30
2022-10-11T04:22:22.578Z,74.40
2022-10-11T04:25:04.082Z,74.40
2022-10-11T04:27:45.566Z,74.30
2022-10-11T04:30:26.958Z,74.40
2022-10-11T04:33:08.450Z,74.30
2022-10-11T04:35:50.918Z,74.20
2022-10-11T04:38:31.464Z,74.20
2022-10-11T04:41:14.344Z,74.30
2022-10-11T04:43:55.437Z,74.30
2022-10-11T04:46:36.766Z,74.30
2022-10-11T04:49:18.573Z,74.20
2022-10-11T04:51:59.777Z,74.10
2022-10-11T04:54:41.360Z,74.10
2022-10-11T04:57:22.740Z,74.20
2022-10-11T05:00:04.367Z,74.20
2022-10-11T05:02:45.648Z,74.30
2022-10-11T05:05:28.811Z,74.30
2022-10-11T05:08:12.193Z,74.20
2022-10-11T05:11:00.495Z,74.30
2022-10-11T05:13:42.647Z,74.30
2022-10-11T05:16:24.319Z,74.20
2022-10-11T05:19:04.872Z,74.20
2022-10-11T05:21:46.401Z,74.10
2022-10-11T05:24:29.935Z,74.10
2022-10-11T05:27:10.806Z,74.20
2022-10-11T05:29:54.151Z,74.10
2022-10-11T05:32:36.338Z,74.10
2022-10-11T05:35:16.669Z,74.10
2022-10-11T05:37:58.270Z,74.10
2022-10-11T05:40:39.757Z,74.10
2022-10-11T05:43:21.643Z,74.00
2022-10-11T05:46:02.597Z,74.00
2022-10-11T05:48:43.667Z,74.00
2022-10-11T05:51:25.088Z,74.00
2022-10-11T05:54:06.424Z,74.90
2022-10-11T05:56:49.816Z,74.20
2022-10-11T05:59:32.867Z,74.00
2022-10-11T06:02:14.423Z,73.90
2022-10-11T06:04:55.196Z,73.70
2022-10-11T06:07:38.493Z,73.70
2022-10-11T06:10:20.700Z,73.60
2022-10-11T06:13:06.237Z,73.60
2022-10-11T06:16:13.395Z,73.60
2022-10-11T06:19:14.535Z,73.70
2022-10-11T06:22:13.972Z,73.80
2022-10-11T06:25:13.342Z,73.60
2022-10-11T06:28:12.103Z,73.70
2022-10-11T06:31:07.978Z,73.60
2022-10-11T06:34:16.093Z,73.40
2022-10-11T06:37:15.894Z,73.30
2022-10-11T06:40:14.244Z,73.10
2022-10-11T06:43:22.602Z,73.20
2022-10-11T06:46:19.018Z,73.10
2022-10-11T06:49:15.530Z,72.60
2022-10-11T06:52:20.408Z,72.50
2022-10-11T06:55:19.004Z,72.40
2022-10-11T06:58:24.869Z,72.20
2022-10-11T07:01:26.258Z,72.20
2022-10-11T07:04:22.039Z,72.00
2022-10-11T07:07:17.986Z,71.90
2022-10-11T07:10:13.955Z,71.80
2022-10-11T07:13:04.387Z,71.60
2022-10-11T07:16:04.011Z,71.50
2022-10-11T07:19:02.851Z,71.20
2022-10-11T07:22:03.802Z,71.00
2022-10-11T07:25:05.367Z,71.00
2022-10-11T07:28:01.275Z,71.00
2022-10-11T07:31:06.455Z,71.00
2022-10-11T07:34:08.706Z,71.00
2022-10-11T07:37:08.029Z,71.00
2022-10-11T07:40:03.862Z,70.60
2022-10-11T07:42:59.234Z,70.40
2022-10-11T07:46:03.828Z,70.20
2022-10-11T07:49:04.969Z,70.10
2022-10-11T07:52:03.151Z,70.00
2022-10-11T07:55:16.676Z,69.80
2022-10-11T07:58:13.128Z,69.60
2022-10-11T08:01:14.646Z,69.80
2022-10-11T08:04:21.947Z,69.70
2022-10-11T08:07:19.647Z,69.90
2022-10-11T08:10:17.720Z,70.00
2022-10-11T08:13:25.395Z,69.40
2022-10-11T08:16:20.602Z,68.60
2022-10-11T08:19:34.152Z,68.50
2022-10-11T08:22:32.926Z,68.40
2022-10-11T08:25:39.544Z,68.80
2022-10-11T08:28:38.201Z,68.70
2022-10-11T08:31:33.594Z,67.80
2022-10-11T08:34:32.396Z,66.70
2022-10-11T08:37:31.527Z,65.00
2022-10-11T08:40:39.178Z,64.20
2022-10-11T08:43:51.636Z,63.70
2022-10-11T08:46:26.807Z,63.50
2022-10-11T08:48:57.059Z,64.60
2022-10-11T08:51:31.563Z,64.00
2022-10-11T08:54:07.945Z,64.20
2022-10-11T08:56:39.785Z,64.10
2022-10-11T08:59:30.054Z,64.30
2022-10-11T09:02:08.082Z,63.90
2022-10-11T09:04:37.514Z,63.80
2022-10-11T09:07:12.039Z,64.20
2022-10-11T09:10:01.740Z,64.80
2022-10-11T09:12:42.478Z,64.20
2022-10-11T09:15:24.755Z,64.20
2022-10-11T09:18:09.943Z,64.60
2022-10-11T09:20:54.106Z,64.30
2022-10-11T09:23:35.914Z,64.50
2022-10-11T09:26:10.691Z,64.20
2022-10-11T09:28:50.893Z,64.20
2022-10-11T09:31:21.312Z,64.10
2022-10-11T09:33:52.062Z,63.70
2022-10-11T09:36:26.595Z,63.50
2022-10-11T09:39:06.625Z,63.70
2022-10-11T09:41:44.092Z,64.00
2022-10-11T09:44:22.951Z,64.10
2022-10-11T09:46:54.706Z,63.40
2022-10-11T09:49:29.220Z,63.50
2022-10-11T09:52:01.375Z,63.30
2022-10-11T09:54:41.908Z,63.40
2022-10-11T09:57:25.775Z,63.60
2022-10-11T10:00:04.895Z,63.50
2022-10-11T10:02:43.845Z,63.70
2022-10-11T10:05:19.996Z,63.50
2022-10-11T10:08:08.055Z,63.10
2022-10-11T10:10:40.178Z,63.40
2022-10-11T10:13:23.450Z,63.30
2022-10-11T10:15:55.764Z,63.20
2022-10-11T10:18:33.881Z,63.50
2022-10-11T10:21:04.386Z,63.30
2022-10-11T10:23:36.260Z,63.10
2022-10-11T10:26:17.173Z,63.00
2022-10-11T10:28:57.937Z,62.80
2022-10-11T10:31:44.471Z,62.50
2022-10-11T10:34:28.686Z,63.00
2022-10-11T10:37:01.031Z,63.00
2022-10-11T10:39:35.015Z,63.00
2022-10-11T10:42:06.413Z,62.60
2022-10-11T10:44:35.755Z,62.80
2022-10-11T10:47:10.815Z,62.80
2022-10-11T10:49:54.498Z,63.00
2022-10-11T10:52:55.026Z,63.00
2022-10-11T10:55:29.410Z,63.30
2022-10-11T10:58:08.546Z,63.50
2022-10-11T11:00:44.030Z,63.20
2022-10-11T11:03:22.390Z,63.10
2022-10-11T11:06:02.000Z,62.70
2022-10-11T11:08:52.579Z,62.80
2022-10-11T11:11:37.642Z,62.70
2022-10-11T11:14:21.555Z,62.60
2022-10-11T11:16:56.690Z,62.40
2022-10-11T11:19:38.617Z,62.30
2022-10-11T11:22:17.238Z,62.20
2022-10-11T11:24:58.174Z,62.30
2022-10-11T11:27:40.017Z,62.10
2022-10-11T11:30:12.291Z,62.10
2022-10-11T11:32:51.600Z,62.10
2022-10-11T11:35:28.526Z,61.90
2022-10-11T11:38:06.629Z,61.50
2022-10-11T11:40:40.539Z,61.60
2022-10-11T11:43:19.010Z,61.70
2022-10-11T11:45:52.743Z,61.60
2022-10-11T11:48:24.676Z,61.70
2022-10-11T11:51:02.076Z,61.80
2022-10-11T11:53:48.612Z,61.50
2022-10-11T11:56:27.588Z,61.30
2022-10-11T11:59:04.162Z,61.20
2022-10-11T12:01:41.063Z,61.40
2022-10-11T12:04:16.916Z,61.10
2022-10-11T12:07:11.041Z,61.00
2022-10-11T12:09:38.571Z,61.20
2022-10-11T12:12:09.605Z,61.20
2022-10-11T12:14:41.008Z,61.30
2022-10-11T12:17:17.117Z,61.30
2022-10-11T12:20:04.610Z,61.30
2022-10-11T12:22:53.645Z,61.20
2022-10-11T12:25:44.201Z,61.20
2022-10-11T12:28:50.753Z,61.00
2022-10-11T12:31:24.530Z,60.60
2022-10-11T12:34:16.775Z,60.60
2022-10-11T12:36:47.254Z,60.20
2022-10-11T12:39:52.864Z,60.30
2022-10-11T12:42:26.675Z,60.10
2022-10-11T12:45:33.507Z,60.20
2022-10-11T12:48:40.767Z,59.70
2022-10-11T12:51:30.083Z,59.50
2022-10-11T12:54:27.284Z,59.40
2022-10-11T12:57:23.949Z,59.40
2022-10-11T12:59:54.455Z,59.10
2022-10-11T13:02:30.134Z,59.70
2022-10-11T13:05:09.105Z,59.00
2022-10-11T13:07:43.256Z,58.90
2022-10-11T13:10:15.896Z,59.30
2022-10-11T13:12:47.722Z,58.60
2022-10-11T13:15:21.399Z,58.90
2022-10-11T13:17:52.799Z,58.80
2022-10-11T13:20:26.246Z,59.00
2022-10-11T13:22:57.370Z,59.10
2022-10-11T13:25:28.599Z,58.90
2022-10-11T13:27:59.421Z,58.80
2022-10-11T13:30:32.685Z,58.80
2022-10-11T13:33:06.729Z,58.50
2022-10-11T13:35:38.471Z,58.50
2022-10-11T13:38:10.213Z,58.50
2022-10-11T13:40:39.696Z,58.60
2022-10-11T13:43:09.350Z,58.60
2022-10-11T13:45:41.418Z,58.50
2022-10-11T13:48:15.848Z,58.50
2022-10-11T13:50:52.238Z,58.40
2022-10-11T13:53:25.263Z,58.50
2022-10-11T13:55:57.637Z,59.00
2022-10-11T13:58:31.172Z,58.50
2022-10-11T14:01:05.374Z,58.60
2022-10-11T14:03:43.565Z,58.60
2022-10-11T14:06:13.154Z,58.50
2022-10-11T14:08:47.165Z,58.50
2022-10-11T14:11:17.156Z,58.50
2022-10-11T14:13:47.765Z,58.40
2022-10-11T14:16:32.160Z,58.40
2022-10-11T14:19:10.916Z,58.40
2022-10-11T14:21:52.422Z,58.40
2022-10-11T14:24:22.337Z,58.40
2022-10-11T14:26:54.130Z,58.40
2022-10-11T14:29:26.203Z,58.40
2022-10-11T14:32:02.049Z,58.50
2022-10-11T14:34:31.513Z,58.60
2022-10-11T14:37:01.102Z,58.50
2022-10-11T14:39:32.975Z,58.60
2022-10-11T14:42:02.140Z,58.40
2022-10-11T14:44:31.102Z,58.50
2022-10-11T14:47:02.430Z,58.60
2022-10-11T14:49:33.562Z,58.50
2022-10-11T14:52:04.398Z,58.50
2022-10-11T14:54:33.583Z,58.50
2022-10-11T14:57:05.190Z,58.40
2022-10-11T14:59:37.068Z,58.50
2022-10-11T15:02:09.719Z,58.50
2022-10-11T15:04:38.822Z,58.50
2022-10-11T15:07:07.862Z,58.50
2022-10-11T15:09:36.586Z,58.40
2022-10-11T15:12:06.139Z,58.30
2022-10-11T15:14:35.051Z,58.30
2022-10-11T15:17:03.926Z,58.40
2022-10-11T15:19:34.310Z,58.40
2022-10-11T15:22:05.860Z,58.50
2022-10-11T15:24:34.743Z,58.50
2022-10-11T15:27:03.730Z,58.40
2022-10-11T15:29:32.755Z,58.60
2022-10-11T15:32:01.747Z,58.60
2022-10-11T15:34:30.618Z,58.70
2022-10-11T15:37:01.059Z,58.70
2022-10-11T15:39:33.596Z,58.80
2022-10-11T15:42:02.551Z,58.80
2022-10-11T15:44:31.794Z,58.90
2022-10-11T15:47:00.694Z,58.90
2022-10-11T15:49:29.747Z,59.10
2022-10-11T15:52:00.299Z,59.00
2022-10-11T15:54:30.265Z,59.10
2022-10-11T15:56:59.396Z,59.20
2022-10-11T15:59:28.363Z,59.20
2022-10-11T16:01:58.041Z,59.20
2022-10-11T16:04:26.996Z,59.10
2022-10-11T16:06:56.143Z,59.10
2022-10-11T16:09:26.393Z,59.10
2022-10-11T16:11:55.338Z,59.10
2022-10-11T16:14:24.163Z,59.10
2022-10-11T16:16:53.206Z,59.10
2022-10-11T16:19:21.871Z,59.20
2022-10-11T16:21:50.790Z,59.20
2022-10-11T16:24:19.597Z,59.20
2022-10-11T16:26:50.069Z,59.20
2022-10-11T16:29:19.016Z,59.20
2022-10-11T16:31:47.863Z,59.20
2022-10-11T16:34:16.573Z,59.30
2022-10-11T16:36:45.801Z,59.40
2022-10-11T16:39:17.915Z,59.40
2022-10-11T16:41:47.459Z,59.40
2022-10-11T16:44:19.840Z,59.40
2022-10-11T16:46:49.546Z,59.40
2022-10-11T16:49:20.052Z,59.50
2022-10-11T16:51:49.313Z,59.60
2022-10-11T16:54:20.566Z,59.60
2022-10-11T16:56:50.604Z,59.60
2022-10-11T16:59:21.442Z,59.50
2022-10-11T17:01:50.428Z,59.60
2022-10-11T17:04:19.570Z,59.70
2022-10-11T17:06:48.665Z,59.90
2022-10-11T17:09:18.569Z,59.90
2022-10-11T17:11:47.655Z,60.00
2022-10-11T17:14:16.785Z,60.10
2022-10-11T17:16:47.120Z,60.30
2022-10-11T17:19:16.821Z,60.50
2022-10-11T17:21:45.869Z,60.60
2022-10-11T17:24:14.644Z,60.70
2022-10-11T17:26:43.531Z,60.80
2022-10-11T17:29:14.902Z,60.90
2022-10-11T17:31:48.963Z,61.10
2022-10-11T17:34:19.670Z,61.10
2022-10-11T17:36:49.033Z,61.20
2022-10-11T17:39:21.238Z,61.20
2022-10-11T17:41:50.246Z,61.30
2022-10-11T17:44:19.655Z,61.40
2022-10-11T17:46:49.047Z,61.40
2022-10-11T17:49:19.157Z,61.40
2022-10-11T17:51:47.973Z,61.60
2022-10-11T17:54:16.670Z,61.70
2022-10-11T17:56:45.687Z,61.80
2022-10-11T17:59:17.659Z,61.80
2022-10-11T18:01:46.459Z,62.00
2022-10-11T18:04:17.604Z,62.10
2022-10-11T18:06:49.022Z,62.30
2022-10-11T18:09:19.477Z,62.20
2022-10-11T18:11:49.023Z,62.30
2022-10-11T18:14:18.154Z,62.20
2022-10-11T18:16:47.113Z,62.40
2022-10-11T18:19:16.063Z,62.50
2022-10-11T18:21:44.994Z,62.60
2022-10-11T18:24:17.043Z,62.80
2022-10-11T18:26:47.270Z,63.00
2022-10-11T18:29:16.932Z,63.00
2022-10-11T18:31:46.001Z,63.20
2022-10-11T18:34:15.763Z,63.30
2022-10-11T18:36:44.797Z,63.30
2022-10-11T18:39:16.407Z,63.50
2022-10-11T18:41:45.390Z,63.60
2022-10-11T18:44:16.418Z,63.70
2022-10-11T18:46:45.422Z,63.70
2022-10-11T18:49:14.936Z,63.90
2022-10-11T18:51:45.678Z,63.90
2022-10-11T18:54:20.051Z,63.90
2022-10-11T18:56:50.940Z,64.10
2022-10-11T18:59:20.416Z,64.10
2022-10-11T19:01:52.228Z,64.20
2022-10-11T19:04:22.039Z,64.30
2022-10-11T19:06:53.299Z,64.40
2022-10-11T19:09:26.287Z,64.40
2022-10-11T19:11:56.454Z,64.30
2022-10-11T19:14:28.375Z,64.40
2022-10-11T19:16:57.649Z,64.40
2022-10-11T19:19:28.554Z,64.40
2022-10-11T19:21:57.643Z,64.40
2022-10-11T19:24:29.543Z,64.40
2022-10-11T19:27:02.644Z,64.50
2022-10-11T19:29:33.121Z,64.40
2022-10-11T19:32:03.707Z,64.50
2022-10-11T19:34:32.670Z,64.70
2022-10-11T19:37:03.214Z,64.70
2022-10-11T19:39:33.950Z,64.80
2022-10-11T19:42:04.727Z,64.90
2022-10-11T19:44:37.143Z,64.90
2022-10-11T19:47:08.966Z,65.00
2022-10-11T19:49:38.203Z,65.10
2022-10-11T19:52:09.385Z,65.30
2022-10-11T19:54:39.808Z,65.40
2022-10-11T19:57:09.406Z,65.50
2022-10-11T19:59:38.187Z,65.60
2022-10-11T20:02:07.151Z,65.60
2022-10-11T20:04:52.110Z,65.60
2022-10-11T20:07:22.635Z,65.70
2022-10-11T20:09:52.706Z,65.60
2022-10-11T20:12:21.568Z,65.60
2022-10-11T20:14:50.323Z,65.60
2022-10-11T20:17:19.111Z,65.60
2022-10-11T20:19:47.781Z,65.60
2022-10-11T20:22:16.459Z,65.50
2022-10-11T20:24:45.131Z,65.60
2022-10-11T20:27:15.315Z,65.50
2022-10-11T20:29:44.000Z,65.50
2022-10-11T20:32:13.011Z,65.50
2022-10-11T20:34:42.017Z,65.50
2022-10-11T20:37:10.992Z,65.50
2022-10-11T20:39:39.772Z,65.50
2022-10-11T20:42:08.739Z,65.80
2022-10-11T20:44:38.822Z,65.50
2022-10-11T20:47:07.719Z,65.50
2022-10-11T20:49:36.673Z,65.40
2022-10-11T20:52:05.693Z,65.40
2022-10-11T20:54:35.413Z,65.50
2022-10-11T20:57:04.382Z,65.50
2022-10-11T20:59:33.163Z,65.60
2022-10-11T21:02:03.196Z,65.60
2022-10-11T21:04:31.989Z,65.70
2022-10-11T21:07:00.682Z,65.70
2022-10-11T21:09:29.383Z,65.80
2022-10-11T21:11:58.155Z,65.90
2022-10-11T21:14:26.947Z,65.90
2022-10-11T21:16:56.589Z,66.00
2022-10-11T21:19:27.044Z,65.90
2022-10-11T21:21:55.663Z,66.10
2022-10-11T21:24:24.507Z,66.00
2022-10-11T21:26:56.930Z,66.00
2022-10-11T21:29:28.302Z,66.20
2022-10-11T21:31:56.997Z,66.10
2022-10-11T21:34:27.054Z,66.90
2022-10-11T21:36:55.811Z,66.00
2022-10-11T21:39:24.510Z,66.00
2022-10-11T21:41:53.334Z,65.90
2022-10-11T21:44:22.181Z,65.90
2022-10-11T21:47:06.488Z,66.00
2022-10-11T21:49:37.897Z,66.00
2022-10-11T21:52:06.967Z,66.00
2022-10-11T21:54:35.821Z,66.00
2022-10-11T21:57:04.774Z,66.10
2022-10-11T21:59:33.614Z,66.10
2022-10-11T22:02:02.629Z,66.10
2022-10-11T22:04:31.571Z,66.10
2022-10-11T22:07:02.113Z,66.40
2022-10-11T22:09:34.839Z,66.00
2022-10-11T22:12:04.618Z,65.80
2022-10-11T22:14:33.447Z,65.90
2022-10-11T22:17:02.239Z,66.00
2022-10-11T22:19:31.063Z,66.00
2022-10-11T22:21:59.774Z,66.00
2022-10-11T22:24:30.614Z,66.00
2022-10-11T22:26:59.507Z,66.10
2022-10-11T22:29:33.196Z,66.20
2022-10-11T22:32:02.895Z,66.00
2022-10-11T22:34:32.751Z,65.90
2022-10-11T22:37:01.470Z,65.90
2022-10-11T22:39:32.071Z,65.90
2022-10-11T22:42:00.875Z,65.90
2022-10-11T22:44:29.930Z,66.00
2022-10-11T22:46:59.052Z,66.10
2022-10-11T22:49:27.955Z,66.00
2022-10-11T22:51:56.887Z,66.00
2022-10-11T22:54:25.702Z,66.00
2022-10-11T22:56:55.699Z,66.00
2022-10-11T22:59:24.424Z,66.00
2022-10-11T23:01:53.211Z,66.00
2022-10-11T23:04:22.244Z,66.10
2022-10-11T23:06:51.604Z,66.00
2022-10-11T23:09:20.529Z,66.10
2022-10-11T23:11:49.351Z,66.20
2022-10-11T23:14:19.567Z,66.10
2022-10-11T23:16:48.391Z,66.10
2022-10-11T23:19:17.717Z,66.30
2022-10-11T23:21:47.544Z,66.30
2022-10-11T23:24:16.435Z,66.20
2022-10-11T23:26:45.307Z,66.20
2022-10-11T23:29:14.041Z,66.30
2022-10-11T23:31:46.236Z,66.30
2022-10-11T23:34:15.083Z,66.30
2022-10-11T23:36:43.948Z,66.40
2022-10-11T23:39:13.461Z,66.50
2022-10-11T23:41:42.915Z,66.70
2022-10-11T23:44:11.767Z,67.00
2022-10-11T23:46:40.581Z,67.10
2022-10-11T23:49:10.630Z,67.30
2022-10-11T23:51:39.519Z,67.30
2022-10-11T23:54:08.594Z,67.40
2022-10-11T23:56:38.106Z,67.40
2022-10-11T23:59:07.223Z,67.40
